Time;durP1;ratioP1;P1;durP2;ratioP2;P2;SDS_P1;SDS_P2;PMS_P1;PMS_P2;Temp;Humidity;BMP_temperature;BMP_pressure;BME280_temperature;BME280_humidity;BME280_pressure;Samples;Min_cycle;Max_cycle;Signal;HPM_P1;HPM_P2
2023/03/15 00:01:57;;;;;;;2.75;1.50;;;;;;;2.70;100.00;101031.81;5030793;28;20030;-73
2023/03/15 00:04:24;;;;;;;2.47;1.30;;;;;;;2.67;100.00;101033.00;5032782;28;20064;-74
2023/03/15 00:06:50;;;;;;;3.08;1.90;;;;;;;2.69;100.00;101032.81;5034165;28;20052;-74
2023/03/15 00:09:15;;;;;;;4.15;1.77;;;;;;;2.69;100.00;101036.34;5034813;28;20113;-73
2023/03/15 00:11:40;;;;;;;3.83;1.70;;;;;;;2.71;100.00;101030.84;5016200;28;20028;-72
2023/03/15 00:14:06;;;;;;;5.18;1.73;;;;;;;2.69;100.00;101020.31;5016678;28;20087;-74
2023/03/15 00:16:31;;;;;;;4.85;1.92;;;;;;;2.72;100.00;101027.13;5015051;28;20029;-74
2023/03/15 00:18:57;;;;;;;3.05;1.52;;;;;;;2.77;100.00;101028.31;5031737;28;20462;-75
2023/03/15 00:21:23;;;;;;;4.68;1.52;;;;;;;2.80;100.00;101038.66;5027451;28;20034;-75
2023/03/15 00:23:48;;;;;;;5.57;1.88;;;;;;;2.84;100.00;101029.31;4996714;28;20524;-74
2023/03/15 00:26:14;;;;;;;3.75;1.70;;;;;;;2.87;100.00;101033.47;4996920;28;20037;-71
2023/03/15 00:28:39;;;;;;;5.07;1.85;;;;;;;2.89;100.00;101041.34;5014684;28;20527;-75
2023/03/15 00:31:24;;;;;;;5.25;1.63;;;;;;;2.93;100.00;101038.16;5016666;28;20369;-71
2023/03/15 00:33:54;;;;;;;5.63;2.00;;;;;;;2.95;100.00;101040.66;5031364;28;20040;-74
2023/03/15 00:36:24;;;;;;;4.15;1.90;;;;;;;2.96;100.00;101036.94;5014241;28;20025;-73
2023/03/15 00:38:52;;;;;;;5.20;1.70;;;;;;;2.97;100.00;101034.09;5013615;28;20026;-72
2023/03/15 00:41:18;;;;;;;3.53;1.83;;;;;;;2.99;100.00;101040.13;5014151;28;20022;-75
2023/03/15 00:43:44;;;;;;;4.45;1.70;;;;;;;3.03;100.00;101047.81;4996271;28;20062;-75
2023/03/15 00:46:10;;;;;;;5.47;1.70;;;;;;;3.04;100.00;101044.16;5016243;28;20029;-73
2023/03/15 00:48:36;;;;;;;4.93;2.25;;;;;;;3.11;100.00;101039.75;5014722;28;20044;-74
2023/03/15 00:51:02;;;;;;;3.75;1.90;;;;;;;3.08;100.00;101030.25;5031357;28;20049;-73
2023/03/15 00:53:27;;;;;;;4.68;1.70;;;;;;;3.10;100.00;101032.75;5032454;28;20120;-74
2023/03/15 00:55:53;;;;;;;4.38;1.83;;;;;;;3.13;100.00;101035.09;5033194;28;20595;-75
2023/03/15 00:58:18;;;;;;;3.55;1.80;;;;;;;3.12;100.00;101036.09;5033462;28;20053;-74
2023/03/15 01:00:43;;;;;;;6.15;2.30;;;;;;;3.13;100.00;101040.44;5030969;28;20110;-74
2023/03/15 01:03:09;;;;;;;5.47;1.80;;;;;;;3.11;100.00;101039.75;5030687;28;20042;-74
2023/03/15 01:05:35;;;;;;;7.93;1.95;;;;;;;3.12;100.00;101033.41;5015327;28;20065;-71
2023/03/15 01:08:01;;;;;;;5.05;2.10;;;;;;;3.15;100.00;101044.59;5013055;28;20101;-74
2023/03/15 01:10:27;;;;;;;6.13;2.50;;;;;;;3.15;100.00;101035.75;5013833;28;20061;-72
2023/03/15 01:12:53;;;;;;;5.03;2.15;;;;;;;3.10;100.00;101046.13;5013095;28;20172;-75
2023/03/15 01:15:18;;;;;;;6.55;2.50;;;;;;;3.16;100.00;101045.44;5013211;28;20127;-75
2023/03/15 01:17:43;;;;;;;7.28;2.75;;;;;;;3.10;100.00;101044.28;5012295;28;20028;-74
2023/03/15 01:20:13;;;;;;;7.95;2.85;;;;;;;3.12;100.00;101046.78;5032050;28;20053;-73
2023/03/15 01:22:38;;;;;;;8.38;4.20;;;;;;;3.09;100.00;101055.16;5014671;28;20036;-71
2023/03/15 01:25:04;;;;;;;9.07;4.78;;;;;;;3.03;100.00;101058.50;5032895;28;20033;-72
2023/03/15 01:27:30;;;;;;;10.88;5.40;;;;;;;3.05;100.00;101059.16;5032699;28;20033;-73
2023/03/15 01:29:55;;;;;;;9.30;5.30;;;;;;;3.05;100.00;101057.34;5032485;28;20029;-75
2023/03/15 01:32:20;;;;;;;8.60;5.95;;;;;;;3.03;100.00;101055.84;5032685;28;20457;-72
2023/03/15 01:34:46;;;;;;;8.70;6.68;;;;;;;3.02;100.00;101063.03;5029942;28;20121;-75
2023/03/15 01:37:13;;;;;;;9.27;6.72;;;;;;;3.02;100.00;101068.38;5019798;28;20028;-72
2023/03/15 01:39:39;;;;;;;9.38;7.07;;;;;;;2.98;100.00;101072.38;5013188;28;20034;-74
2023/03/15 01:42:05;;;;;;;7.78;6.60;;;;;;;2.98;100.00;101075.88;5012982;28;20033;-72
2023/03/15 01:44:54;;;;;;;10.88;7.70;;;;;;;2.99;100.00;101074.88;4995112;28;20551;-73
2023/03/15 01:47:19;;;;;;;11.23;8.10;;;;;;;2.96;100.00;101069.88;5012748;28;20030;-71
2023/03/15 01:49:50;;;;;;;12.65;8.40;;;;;;;2.93;100.00;101075.56;5030984;28;20026;-73
2023/03/15 01:52:22;;;;;;;12.65;8.60;;;;;;;2.90;100.00;101065.22;5032550;28;20040;-75
2023/03/15 01:55:00;;;;;;;9.77;8.13;;;;;;;2.90;100.00;101073.25;5032392;28;20076;-74
2023/03/15 01:57:36;;;;;;;10.80;8.98;;;;;;;2.85;100.00;101078.25;5032719;28;20026;-72
2023/03/15 02:00:11;;;;;;;11.77;9.48;;;;;;;2.88;100.00;101080.56;5032551;28;20131;-73
2023/03/15 02:02:49;;;;;;;13.40;9.75;;;;;;;2.88;100.00;101077.91;5028365;28;20460;-71
2023/03/15 02:05:24;;;;;;;12.50;9.73;;;;;;;2.91;100.00;101090.94;5029947;28;20037;-75
2023/03/15 02:07:53;;;;;;;12.98;10.77;;;;;;;2.90;100.00;101088.41;5014679;28;20025;-75
2023/03/15 02:10:32;;;;;;;12.63;10.32;;;;;;;2.89;100.00;101100.97;5014878;28;20029;-75
2023/03/15 02:12:58;;;;;;;13.10;10.85;;;;;;;2.89;100.00;101106.31;5032249;28;20056;-72
2023/03/15 02:15:23;;;;;;;13.07;10.63;;;;;;;2.86;100.00;101105.81;5032420;28;20065;-73
2023/03/15 02:17:49;;;;;;;14.02;11.05;;;;;;;2.83;100.00;101101.63;5032022;28;20026;-71
2023/03/15 02:20:50;;;;;;;13.73;11.15;;;;;;;2.77;100.00;101115.69;5030732;28;20053;-75
2023/03/15 02:23:21;;;;;;;15.30;12.17;;;;;;;2.67;100.00;101107.81;5030245;28;20107;-72
2023/03/15 02:26:05;;;;;;;15.30;11.95;;;;;;;2.66;100.00;101114.16;5032244;28;20026;-72
2023/03/15 02:28:31;;;;;;;15.05;13.10;;;;;;;2.61;100.00;101114.69;5032391;28;20033;-73
2023/03/15 02:30:57;;;;;;;17.02;13.30;;;;;;;2.61;100.00;101114.69;5032066;28;20026;-75
2023/03/15 02:33:29;;;;;;;14.18;12.77;;;;;;;2.61;100.00;101114.69;5033699;28;20132;-73
2023/03/15 02:35:55;;;;;;;15.65;12.63;;;;;;;2.64;100.00;101114.34;5018319;28;20029;-72
2023/03/15 02:38:22;;;;;;;14.90;12.98;;;;;;;2.65;100.00;101110.66;5032037;28;20080;-76
2023/03/15 02:40:48;;;;;;;12.00;10.20;;;;;;;2.63;100.00;101112.66;5036391;28;20064;-74
2023/03/15 02:43:21;;;;;;;12.27;10.00;;;;;;;2.62;100.00;101113.66;5007143;28;20125;-71
2023/03/15 02:45:48;;;;;;;11.50;10.13;;;;;;;2.58;100.00;101117.69;5016081;28;20480;-73
2023/03/15 02:48:15;;;;;;;12.35;9.98;;;;;;;2.62;100.00;101116.31;5015831;28;20460;-73
2023/03/15 02:50:40;;;;;;;12.35;10.10;;;;;;;2.60;100.00;101129.03;5016027;28;20481;-73
2023/03/15 02:53:05;;;;;;;12.55;11.18;;;;;;;2.58;100.00;101125.69;5003736;28;20038;-75
2023/03/15 02:55:34;;;;;;;13.68;10.55;;;;;;;2.59;100.00;101134.53;4996239;28;20022;-71
2023/03/15 02:58:00;;;;;;;12.32;10.20;;;;;;;2.52;100.00;101131.69;5007561;28;20033;-74
2023/03/15 03:00:26;;;;;;;11.02;9.88;;;;;;;2.46;100.00;101127.84;5034828;28;20033;-74
2023/03/15 03:02:52;;;;;;;11.48;9.85;;;;;;;2.45;100.00;101138.69;5016656;28;20033;-72
2023/03/15 03:05:17;;;;;;;10.57;9.40;;;;;;;2.43;100.00;101149.53;5035622;28;20140;-73
2023/03/15 03:07:43;;;;;;;10.88;9.70;;;;;;;2.39;100.00;101150.03;5033879;28;20029;-74
2023/03/15 03:10:14;;;;;;;11.57;10.35;;;;;;;2.38;100.00;101156.38;5032359;28;20057;-73
2023/03/15 03:12:39;;;;;;;11.13;10.07;;;;;;;2.38;100.00;101159.03;5035475;28;20033;-73
2023/03/15 03:15:06;;;;;;;11.90;10.60;;;;;;;2.34;100.00;101168.38;5035629;28;20034;-74
2023/03/15 03:17:36;;;;;;;10.98;9.95;;;;;;;2.28;100.00;101173.38;5035441;28;20026;-75
2023/03/15 03:20:03;;;;;;;12.27;10.05;;;;;;;2.29;100.00;101175.06;5035208;28;20076;-75
2023/03/15 03:22:29;;;;;;;12.25;10.90;;;;;;;2.32;100.00;101176.53;5035523;28;20056;-74
2023/03/15 03:24:54;;;;;;;11.32;10.23;;;;;;;2.38;100.00;101181.22;5032390;28;20470;-75
2023/03/15 03:27:20;;;;;;;11.75;10.30;;;;;;;2.36;100.00;101190.44;5035248;28;20022;-74
2023/03/15 03:29:45;;;;;;;11.30;10.10;;;;;;;2.33;100.00;101183.56;5033932;28;20093;-72
2023/03/15 03:32:11;;;;;;;12.15;10.85;;;;;;;2.33;100.00;101190.75;5013738;28;20193;-73
2023/03/15 03:34:36;;;;;;;12.40;10.55;;;;;;;2.30;100.00;101183.91;5017346;28;20029;-73
2023/03/15 03:37:02;;;;;;;12.23;10.43;;;;;;;2.33;100.00;101190.75;5032868;28;20465;-75
2023/03/15 03:39:27;;;;;;;11.73;10.52;;;;;;;2.30;100.00;101187.38;5000933;28;20030;-73
2023/03/15 03:41:53;;;;;;;12.35;10.70;;;;;;;2.32;100.00;101205.09;5032401;28;20072;-71
2023/03/15 03:44:18;;;;;;;11.93;10.75;;;;;;;2.28;100.00;101216.09;5034434;28;20546;-74
2023/03/15 03:46:43;;;;;;;11.80;10.70;;;;;;;2.22;100.00;101214.06;5034827;28;20025;-75
2023/03/15 03:49:09;;;;;;;11.55;10.35;;;;;;;2.19;100.00;101219.75;5034629;28;20041;-73
2023/03/15 03:51:35;;;;;;;12.45;11.25;;;;;;;2.18;100.00;101217.22;5034841;28;20654;-75
2023/03/15 03:54:01;;;;;;;11.45;10.32;;;;;;;2.22;100.00;101222.09;5033579;28;20473;-74
2023/03/15 03:56:26;;;;;;;11.65;10.52;;;;;;;2.17;100.00;101216.38;5032827;28;20052;-72
2023/03/15 03:58:51;;;;;;;11.85;10.65;;;;;;;2.19;100.00;101225.09;5034539;28;20079;-74
2023/03/15 04:01:17;;;;;;;12.60;11.30;;;;;;;2.17;100.00;101220.91;5032153;28;20033;-74
2023/03/15 04:03:42;;;;;;;11.35;10.10;;;;;;;2.12;100.00;101226.72;5034631;28;20033;-74
2023/03/15 04:06:08;;;;;;;11.45;10.35;;;;;;;2.10;100.00;101234.06;5034304;28;20033;-74
2023/03/15 04:08:33;;;;;;;12.60;10.98;;;;;;;2.11;100.00;101236.56;5030272;28;20776;-73
2023/03/15 04:11:02;;;;;;;11.55;10.35;;;;;;;2.13;100.00;101244.41;5028815;28;20034;-72
2023/03/15 04:13:28;;;;;;;11.57;10.38;;;;;;;2.00;100.00;101244.84;5033439;28;20092;-75
2023/03/15 04:15:56;;;;;;;12.68;11.20;;;;;;;2.02;100.00;101248.19;5033251;28;20457;-75
2023/03/15 04:18:22;;;;;;;10.85;9.75;;;;;;;1.94;100.00;101248.16;5034038;28;20060;-75
2023/03/15 04:20:47;;;;;;;11.68;10.57;;;;;;;1.93;100.00;101259.81;5034245;28;20429;-74
2023/03/15 04:23:13;;;;;;;11.82;10.63;;;;;;;1.88;100.00;101268.28;5034075;28;20079;-73
2023/03/15 04:25:39;;;;;;;11.88;10.45;;;;;;;1.90;100.00;101266.31;5015163;28;20040;-74
2023/03/15 04:28:04;;;;;;;12.73;11.02;;;;;;;1.85;100.00;101262.44;5032240;28;20041;-73
2023/03/15 04:30:30;;;;;;;13.60;10.35;;;;;;;1.85;100.00;101273.94;5033774;28;20376;-73
2023/03/15 04:32:59;;;;;;;11.75;10.20;;;;;;;1.82;100.00;101276.94;5033106;28;20033;-75
2023/03/15 04:35:29;;;;;;;12.02;10.32;;;;;;;1.84;100.00;101276.78;5034059;28;20033;-75
2023/03/15 04:37:55;;;;;;;11.68;10.43;;;;;;;1.82;100.00;101284.09;5033944;28;20377;-74
2023/03/15 04:40:22;;;;;;;11.75;10.55;;;;;;;1.81;100.00;101280.56;5033869;28;20029;-71
2023/03/15 04:42:49;;;;;;;10.85;9.75;;;;;;;1.77;100.00;101284.56;5011971;28;20052;-74
2023/03/15 04:45:14;;;;;;;14.15;10.35;;;;;;;1.83;100.00;101291.09;5017668;28;20033;-75
2023/03/15 04:47:40;;;;;;;12.32;10.13;;;;;;;1.80;100.00;101294.94;5014246;28;20038;-74
2023/03/15 04:50:06;;;;;;;11.20;9.82;;;;;;;1.76;100.00;101294.38;5009647;28;20038;-74
2023/03/15 04:52:31;;;;;;;11.30;10.10;;;;;;;1.76;100.00;101297.06;5010690;28;20053;-73
2023/03/15 04:54:56;;;;;;;11.05;9.90;;;;;;;1.77;100.00;101305.91;5013689;28;20432;-75
2023/03/15 04:57:22;;;;;;;10.65;9.55;;;;;;;1.72;100.00;101302.88;4994444;28;20054;-72
2023/03/15 04:59:47;;;;;;;10.70;9.60;;;;;;;1.69;100.00;101301.38;5033426;28;20040;-73
2023/03/15 05:02:12;;;;;;;11.27;9.77;;;;;;;1.66;100.00;101307.03;5030685;28;20053;-72
2023/03/15 05:04:38;;;;;;;10.65;9.55;;;;;;;1.68;100.00;101309.53;5033918;28;20041;-74
2023/03/15 05:07:03;;;;;;;10.40;9.27;;;;;;;1.71;100.00;101303.88;5033180;28;20087;-72
2023/03/15 05:09:28;;;;;;;11.60;9.70;;;;;;;1.75;100.00;101306.06;5032318;28;20042;-73
2023/03/15 05:11:54;;;;;;;10.82;9.20;;;;;;;1.75;100.00;101319.41;5033690;28;20029;-74
2023/03/15 05:14:19;;;;;;;11.45;9.50;;;;;;;1.74;100.00;101319.56;5031340;28;20029;-72
2023/03/15 05:16:47;;;;;;;12.02;9.20;;;;;;;1.77;100.00;101322.75;5031652;28;20108;-72
2023/03/15 05:19:12;;;;;;;12.48;9.02;;;;;;;1.77;100.00;101324.59;5032690;28;20484;-73
2023/03/15 05:21:37;;;;;;;12.18;8.65;;;;;;;1.75;100.00;101326.56;5032814;28;20029;-72
2023/03/15 05:24:03;;;;;;;10.00;8.85;;;;;;;1.76;100.00;101333.59;5033142;28;20025;-74
2023/03/15 05:26:28;;;;;;;10.73;8.68;;;;;;;1.77;100.00;101330.75;5031730;28;20034;-75
2023/03/15 05:28:54;;;;;;;10.65;8.73;;;;;;;1.77;100.00;101329.94;5013882;28;20174;-72
2023/03/15 05:31:19;;;;;;;12.30;8.80;;;;;;;1.77;100.00;101337.94;5032518;28;20060;-71
2023/03/15 05:33:47;;;;;;;12.63;9.32;;;;;;;1.79;100.00;101337.78;5014168;28;20389;-71
2023/03/15 05:36:14;;;;;;;10.07;9.02;;;;;;;1.75;100.00;101342.56;5032747;28;20056;-74
2023/03/15 05:38:40;;;;;;;9.73;8.65;;;;;;;1.68;100.00;101342.38;5031590;28;20031;-74
2023/03/15 05:41:07;;;;;;;9.10;8.15;;;;;;;1.72;100.00;101340.22;5032175;28;20607;-71
2023/03/15 05:43:32;;;;;;;10.90;9.13;;;;;;;1.73;100.00;101339.25;5011928;28;20033;-74
2023/03/15 05:45:57;;;;;;;10.10;9.05;;;;;;;1.74;100.00;101346.25;5032769;28;20075;-74
2023/03/15 05:48:23;;;;;;;11.00;9.05;;;;;;;1.72;100.00;101353.56;5032474;28;20032;-72
2023/03/15 05:50:48;;;;;;;9.90;8.90;;;;;;;1.71;100.00;101352.72;5032644;28;20052;-75
2023/03/15 05:53:13;;;;;;;10.75;9.10;;;;;;;1.68;100.00;101358.38;5028463;28;20033;-72
2023/03/15 05:55:39;;;;;;;13.55;9.45;;;;;;;1.63;100.00;101350.00;5003250;28;20050;-73
2023/03/15 05:58:05;;;;;;;11.07;8.98;;;;;;;1.66;100.00;101363.03;5022199;28;20036;-74
2023/03/15 06:00:30;;;;;;;11.07;9.88;;;;;;;1.70;100.00;101368.91;5029731;28;20384;-72
2023/03/15 06:02:58;;;;;;;11.82;9.88;;;;;;;1.70;100.00;101376.91;5030343;28;20044;-74
2023/03/15 06:05:23;;;;;;;10.52;9.43;;;;;;;1.67;100.00;101379.88;5031674;28;20082;-72
2023/03/15 06:07:49;;;;;;;12.38;10.43;;;;;;;1.71;100.00;101383.91;5032297;28;20037;-75
2023/03/15 06:10:14;;;;;;;12.27;9.77;;;;;;;1.71;100.00;101391.94;5032332;28;20040;-75
2023/03/15 06:12:40;;;;;;;11.18;9.65;;;;;;;1.71;100.00;101386.59;5032144;28;20029;-74
2023/03/15 06:15:06;;;;;;;11.23;9.38;;;;;;;1.72;100.00;101386.44;5029166;28;20049;-74
2023/03/15 06:17:32;;;;;;;11.45;9.60;;;;;;;1.75;100.00;101385.28;5014710;28;20033;-74
2023/03/15 06:19:57;;;;;;;11.95;9.48;;;;;;;1.70;100.00;101385.72;5013409;28;20064;-71
2023/03/15 06:22:24;;;;;;;10.73;9.50;;;;;;;1.79;100.00;101396.50;5032399;28;20029;-71
2023/03/15 06:24:50;;;;;;;11.30;9.85;;;;;;;1.83;100.00;101413.84;5032002;28;20048;-74
2023/03/15 06:27:15;;;;;;;12.15;9.88;;;;;;;1.85;100.00;101417.22;5014340;28;20029;-74
2023/03/15 06:29:40;;;;;;;11.50;9.65;;;;;;;1.84;100.00;101423.53;5030547;28;20116;-72
2023/03/15 06:32:06;;;;;;;11.52;10.18;;;;;;;1.87;100.00;101426.75;5032537;28;20071;-73
2023/03/15 06:34:31;;;;;;;12.68;9.82;;;;;;;1.85;100.00;101431.41;5031090;28;20461;-74
2023/03/15 06:36:57;;;;;;;14.57;9.57;;;;;;;1.89;100.00;101440.78;5030194;28;20478;-75
2023/03/15 06:39:22;;;;;;;14.48;9.90;;;;;;;1.85;100.00;101436.72;5012756;28;20087;-72
2023/03/15 06:41:48;;;;;;;13.90;10.98;;;;;;;1.85;100.00;101434.06;5032215;28;20025;-73
2023/03/15 06:44:13;;;;;;;16.75;10.40;;;;;;;1.90;100.00;101442.47;5014186;28;20107;-71
2023/03/15 06:46:38;;;;;;;13.77;11.00;;;;;;;1.90;100.00;101447.81;5030606;28;20416;-73
2023/03/15 06:49:04;;;;;;;12.13;10.40;;;;;;;1.90;100.00;101452.28;5031986;28;20029;-75
2023/03/15 06:51:29;;;;;;;12.95;10.88;;;;;;;1.93;100.00;101446.63;5030732;28;20049;-72
2023/03/15 06:53:55;;;;;;;15.10;10.75;;;;;;;1.96;100.00;101459.69;5031796;28;20041;-74
2023/03/15 06:56:20;;;;;;;14.85;10.95;;;;;;;1.94;100.00;101465.16;5031817;28;20057;-75
2023/03/15 06:58:46;;;;;;;14.23;10.88;;;;;;;1.97;100.00;101469.38;5028972;28;20083;-75
2023/03/15 07:01:13;;;;;;;13.63;10.80;;;;;;;2.00;100.00;101468.25;5024359;28;20068;-73
2023/03/15 07:03:39;;;;;;;12.32;10.95;;;;;;;2.01;100.00;101469.91;5032020;28;20061;-72
2023/03/15 07:06:04;;;;;;;14.30;11.32;;;;;;;2.06;100.00;101475.63;5031654;28;20029;-75
2023/03/15 07:08:29;;;;;;;13.52;10.63;;;;;;;2.02;100.00;101480.41;5031465;28;20021;-73
2023/03/15 07:10:55;;;;;;;15.05;10.88;;;;;;;2.03;100.00;101482.09;5012032;28;20224;-71
2023/03/15 07:13:20;;;;;;;13.90;11.23;;;;;;;2.04;100.00;101485.59;5031804;28;20060;-72
2023/03/15 07:15:51;;;;;;;19.20;11.35;;;;;;;2.10;100.00;101496.53;5030081;28;20041;-71
2023/03/15 07:18:16;;;;;;;15.23;11.40;;;;;;;2.14;100.00;101494.38;5013785;28;20420;-75
2023/03/15 07:20:41;;;;;;;14.63;11.50;;;;;;;2.19;100.00;101499.25;5015927;28;20037;-72
2023/03/15 07:23:07;;;;;;;15.65;11.23;;;;;;;2.24;100.00;101505.81;5035416;28;20030;-75
2023/03/15 07:25:32;;;;;;;16.25;11.52;;;;;;;2.30;100.00;101512.38;5034268;28;20145;-72
2023/03/15 07:27:57;;;;;;;15.32;11.13;;;;;;;2.35;100.00;101515.41;5016314;28;20037;-71
2023/03/15 07:30:23;;;;;;;14.40;11.85;;;;;;;2.37;100.00;101517.94;5029456;28;20033;-74
2023/03/15 07:32:48;;;;;;;14.63;10.55;;;;;;;2.41;100.00;101521.97;5033191;28;20047;-75
2023/03/15 07:35:13;;;;;;;14.10;11.18;;;;;;;2.41;100.00;101530.00;5033655;28;20025;-72
2023/03/15 07:37:40;;;;;;;14.02;11.50;;;;;;;2.43;100.00;101528.00;5034387;28;20480;-73
2023/03/15 07:40:08;;;;;;;13.43;10.82;;;;;;;2.44;100.00;101538.53;5033696;28;20123;-72
2023/03/15 07:42:35;;;;;;;19.92;10.25;;;;;;;2.47;100.00;101535.53;5033675;28;20473;-72
2023/03/15 07:45:01;;;;;;;13.65;9.90;;;;;;;2.49;100.00;101538.06;5024834;28;20088;-73
2023/03/15 07:47:26;;;;;;;11.68;10.02;;;;;;;2.53;100.00;101539.44;5013202;28;20477;-73
2023/03/15 07:49:52;;;;;;;13.27;10.57;;;;;;;2.57;100.00;101545.31;5034794;28;20525;-74
2023/03/15 07:52:17;;;;;;;16.55;9.52;;;;;;;2.57;100.00;101551.50;5031985;28;20045;-74
2023/03/15 07:54:42;;;;;;;11.63;9.98;;;;;;;2.59;100.00;101549.50;5034526;28;20033;-73
2023/03/15 07:57:08;;;;;;;13.23;9.13;;;;;;;2.60;100.00;101561.06;5034847;28;20067;-74
2023/03/15 07:59:33;;;;;;;11.18;9.30;;;;;;;2.68;100.00;101558.44;5034446;28;20060;-73
2023/03/15 08:01:59;;;;;;;13.48;9.15;;;;;;;2.72;100.00;101572.31;5030739;28;20037;-74
2023/03/15 08:04:24;;;;;;;11.00;7.60;;;;;;;2.73;100.00;101577.50;5034756;28;20044;-72
2023/03/15 08:06:49;;;;;;;15.20;9.25;;;;;;;2.79;100.00;101576.91;5015348;28;20041;-73
2023/03/15 08:09:15;;;;;;;13.25;8.57;;;;;;;2.82;100.00;101573.91;5014864;28;20037;-72
2023/03/15 08:11:40;;;;;;;11.55;8.40;;;;;;;2.86;100.00;101578.94;5033656;28;20029;-72
2023/03/15 08:14:05;;;;;;;10.73;7.90;;;;;;;2.94;100.00;101592.34;5034371;28;20156;-72
2023/03/15 08:16:31;;;;;;;13.88;8.88;;;;;;;3.05;100.00;101599.28;5034049;28;20029;-73
2023/03/15 08:18:56;;;;;;;14.85;7.88;;;;;;;3.06;100.00;101599.13;5034020;28;20040;-73
2023/03/15 08:21:21;;;;;;;9.95;6.70;;;;;;;3.14;100.00;101601.00;5032956;28;20060;-73
2023/03/15 08:23:46;;;;;;;11.98;6.93;;;;;;;3.15;100.00;101608.88;5023343;28;20467;-76
2023/03/15 08:26:12;;;;;;;10.25;6.53;;;;;;;3.23;100.00;101620.63;5033465;28;20033;-75
2023/03/15 08:28:37;;;;;;;10.50;6.93;;;;;;;3.27;100.00;101612.13;5034080;28;20120;-76
2023/03/15 08:31:07;;;;;;;6.90;5.93;;;;;;;3.27;100.00;101622.00;5034054;28;20075;-74
2023/03/15 08:33:33;;;;;;;12.10;6.50;;;;;;;3.34;100.00;101618.53;5031816;28;20026;-74
2023/03/15 08:35:58;;;;;;;9.38;6.35;;;;;;;3.40;100.00;101617.06;5015775;28;20071;-75
2023/03/15 08:38:25;;;;;;;9.55;6.07;;;;;;;3.46;100.00;101626.28;5029655;28;20033;-72
2023/03/15 08:40:57;;;;;;;12.55;6.50;;;;;;;3.56;100.00;101627.00;5021342;28;20062;-75
2023/03/15 08:43:23;;;;;;;11.80;6.72;;;;;;;3.61;100.00;101624.69;5006376;28;20033;-74
2023/03/15 08:45:49;;;;;;;11.30;6.32;;;;;;;3.66;100.00;101633.06;5026764;28;20030;-74
2023/03/15 08:48:15;;;;;;;8.32;4.75;;;;;;;3.65;100.00;101634.06;5010143;28;20029;-75
2023/03/15 08:50:40;;;;;;;8.75;4.93;;;;;;;3.72;100.00;101632.44;5026594;28;20124;-74
2023/03/15 08:53:07;;;;;;;7.55;5.00;;;;;;;3.76;100.00;101648.16;5033930;28;20381;-72
2023/03/15 08:55:32;;;;;;;9.82;5.38;;;;;;;3.70;100.00;101647.81;5033532;28;20478;-74
2023/03/15 08:58:00;;;;;;;8.88;4.88;;;;;;;3.72;100.00;101636.94;5033290;28;20128;-73
2023/03/15 09:00:26;;;;;;;9.27;5.40;;;;;;;3.84;100.00;101641.00;5017554;28;20362;-74
2023/03/15 09:02:52;;;;;;;8.55;5.28;;;;;;;3.88;100.00;101639.69;5011472;28;20417;-73
2023/03/15 09:05:18;;;;;;;9.40;5.18;;;;;;;3.96;100.00;101651.44;5013532;28;20449;-72
2023/03/15 09:07:44;;;;;;;8.48;4.80;;;;;;;4.11;100.00;101648.97;5007885;28;20080;-73
2023/03/15 09:10:13;;;;;;;13.32;5.00;;;;;;;4.11;100.00;101651.66;5014672;28;20158;-73
2023/03/15 09:12:40;;;;;;;8.00;4.30;;;;;;;4.14;100.00;101656.72;5013677;28;20038;-73
2023/03/15 09:15:06;;;;;;;8.20;4.38;;;;;;;4.10;100.00;101653.50;5013149;28;20038;-73
2023/03/15 09:17:31;;;;;;;11.25;4.53;;;;;;;4.18;100.00;101652.69;5013153;28;20539;-74
2023/03/15 09:19:56;;;;;;;10.65;4.78;;;;;;;4.21;100.00;101652.34;5013456;28;20141;-71
2023/03/15 09:22:21;;;;;;;7.18;3.95;;;;;;;4.33;100.00;101664.44;5013061;28;20112;-72
2023/03/15 09:24:47;;;;;;;11.25;3.67;;;;;;;4.35;100.00;101659.78;5015676;28;20033;-76
2023/03/15 09:27:12;;;;;;;10.60;3.78;;;;;;;4.41;100.00;101659.13;5033258;28;20531;-75
2023/03/15 09:29:38;;;;;;;12.95;3.67;;;;;;;4.48;100.00;101655.78;5033248;28;20029;-73
2023/03/15 09:32:03;;;;;;;8.85;3.70;;;;;;;4.58;100.00;101659.97;5029457;28;20354;-74
2023/03/15 09:34:28;;;;;;;7.93;3.35;;;;;;;4.68;100.00;101662.50;5031846;28;20120;-74
2023/03/15 09:36:54;;;;;;;11.20;3.55;;;;;;;4.63;100.00;101659.47;5033129;28;20618;-71
2023/03/15 09:39:21;;;;;;;7.15;3.33;;;;;;;4.72;100.00;101661.16;5032582;28;20029;-70
2023/03/15 09:41:52;;;;;;;8.25;3.70;;;;;;;4.73;100.00;101657.47;5012545;28;20021;-71
2023/03/15 09:44:55;;;;;;;14.57;3.72;;;;;;;4.77;100.00;101661.50;5020546;28;20042;-70
2023/03/15 09:47:41;;;;;;;9.27;3.10;;;;;;;4.75;100.00;101668.03;5010941;28;20058;-72
2023/03/15 09:50:23;;;;;;;11.88;3.65;;;;;;;4.81;100.00;101667.38;5012510;28;20113;-71
2023/03/15 09:53:02;;;;;;;9.38;3.00;;;;;;;4.82;100.00;101668.22;4995044;28;20037;-73
2023/03/15 09:55:28;;;;;;;12.57;3.10;;;;;;;4.85;100.00;101666.03;5010759;28;20034;-72
2023/03/15 09:57:56;;;;;;;13.05;3.50;;;;;;;4.97;100.00;101671.91;5008976;28;20037;-74
2023/03/15 10:00:46;;;;;;;9.85;3.67;;;;;;;5.18;100.00;101675.91;5024782;28;20044;-73
2023/03/15 10:03:21;;;;;;;11.15;3.05;;;;;;;5.32;100.00;101661.81;5031385;28;20466;-72
2023/03/15 10:06:04;;;;;;;8.60;2.70;;;;;;;5.46;100.00;101671.00;5031790;28;20042;-76
2023/03/15 10:08:30;;;;;;;12.10;2.92;;;;;;;5.48;100.00;101671.66;5032401;28;20021;-70
2023/03/15 10:11:13;;;;;;;10.00;2.85;;;;;;;5.56;97.42;101665.47;5032619;28;20492;-74
2023/03/15 10:14:16;;;;;;;9.45;2.75;;;;;;;5.51;92.04;101665.97;4992730;28;20038;-75
2023/03/15 10:16:45;;;;;;;11.48;3.13;;;;;;;5.43;88.51;101668.66;4993555;28;20066;-72
2023/03/15 10:19:29;;;;;;;14.70;2.85;;;;;;;5.46;94.63;101661.09;4996537;28;20029;-71
2023/03/15 10:22:08;;;;;;;8.98;2.50;;;;;;;5.52;89.67;101672.19;5032531;28;20072;-71
2023/03/15 10:24:42;;;;;;;114.20;74.97;;;;;;;5.65;93.60;101672.50;5030526;28;20029;-73
2023/03/15 10:27:14;;;;;;;12.23;4.70;;;;;;;5.84;95.01;101666.72;5032424;28;20037;-72
2023/03/15 10:29:40;;;;;;;18.63;8.45;;;;;;;5.89;87.97;101679.63;5032172;28;20061;-72
2023/03/15 10:32:17;;;;;;;7.28;2.03;;;;;;;5.89;79.10;101676.09;5004089;28;20195;-72
2023/03/15 10:34:51;;;;;;;8.63;2.53;;;;;;;6.00;88.06;101665.84;5030126;28;20037;-72
2023/03/15 10:37:18;;;;;;;8.65;2.05;;;;;;;6.08;84.61;101673.00;5031998;28;20029;-74
2023/03/15 10:39:48;;;;;;;7.82;2.25;;;;;;;6.14;76.99;101677.69;5030334;28;20033;-73
2023/03/15 10:42:29;;;;;;;8.82;2.45;;;;;;;6.10;73.46;101676.38;5031160;28;20030;-73
2023/03/15 10:44:55;;;;;;;11.13;2.78;;;;;;;6.00;71.09;101678.44;5032147;28;20030;-72
2023/03/15 10:47:21;;;;;;;10.88;2.45;;;;;;;5.98;78.01;101683.16;5032017;28;20045;-72
2023/03/15 10:49:46;;;;;;;11.07;2.22;;;;;;;5.94;70.23;101682.63;5012043;28;20496;-71
2023/03/15 10:52:35;;;;;;;6.78;2.05;;;;;;;6.09;73.36;101682.75;4999777;28;20042;-73
2023/03/15 10:55:27;;;;;;;10.60;2.35;;;;;;;6.29;73.07;101695.78;5021406;28;20502;-73
2023/03/15 10:58:13;;;;;;;8.93;2.13;;;;;;;6.45;74.65;101689.47;5018707;28;20042;-72
2023/03/15 11:00:52;;;;;;;4.15;1.80;;;;;;;6.62;72.49;101696.41;5018035;28;20033;-75
2023/03/15 11:03:23;;;;;;;7.80;1.88;;;;;;;6.69;67.31;101701.94;5017486;28;20026;-74
2023/03/15 11:05:52;;;;;;;9.35;1.77;;;;;;;6.84;72.55;101702.84;5024317;28;20473;-74
2023/03/15 11:08:23;;;;;;;9.93;1.70;;;;;;;6.91;68.49;101706.50;5028709;28;20033;-73
2023/03/15 11:10:57;;;;;;;7.13;1.75;;;;;;;6.92;65.69;101702.75;5026924;28;20037;-74
2023/03/15 11:13:24;;;;;;;5.30;1.60;;;;;;;6.91;64.25;101711.00;5016239;28;20033;-74
2023/03/15 11:16:05;;;;;;;13.88;8.48;;;;;;;6.96;61.88;101719.41;5017518;28;20577;-75
2023/03/15 11:18:55;;;;;;;11.07;5.10;;;;;;;7.24;72.17;101716.97;5024393;28;20034;-73
2023/03/15 11:21:25;;;;;;;8.82;1.80;;;;;;;7.01;60.16;101721.56;5016272;28;20064;-76